sensor_id;sensor_type;location;lat;lon;timestamp;pressure;altitude;pressure_sealevel;temperature;humidity
78741;BME280;68062;48.726;9.370;2023-03-11T00:01:31;97659.06;;;3.55;64.38
78741;BME280;68062;48.726;9.370;2023-03-11T00:03:57;97679.31;;;3.45;63.96
78741;BME280;68062;48.726;9.370;2023-03-11T00:06:24;97659.00;;;3.50;63.46
78741;BME280;68062;48.726;9.370;2023-03-11T00:08:51;97648.84;;;3.53;62.89
78741;BME280;68062;48.726;9.370;2023-03-11T00:11:18;97666.69;;;3.56;63.10
78741;BME280;68062;48.726;9.370;2023-03-11T00:13:48;97667.41;;;3.43;63.06
78741;BME280;68062;48.726;9.370;2023-03-11T00:16:14;97642.63;;;3.20;63.12
78741;BME280;68062;48.726;9.370;2023-03-11T00:18:41;97686.13;;;3.51;62.50
78741;BME280;68062;48.726;9.370;2023-03-11T00:21:13;97681.84;;;3.45;62.72
78741;BME280;68062;48.726;9.370;2023-03-11T00:23:39;97691.16;;;3.43;62.74
78741;BME280;68062;48.726;9.370;2023-03-11T00:26:06;97658.81;;;3.28;63.00
78741;BME280;68062;48.726;9.370;2023-03-11T00:28:32;97714.03;;;3.45;62.34
78741;BME280;68062;48.726;9.370;2023-03-11T00:31:03;97709.06;;;3.56;63.53
78741;BME280;68062;48.726;9.370;2023-03-11T00:33:29;97708.91;;;3.42;63.44
78741;BME280;68062;48.726;9.370;2023-03-11T00:35:56;97686.13;;;3.51;63.13
78741;BME280;68062;48.726;9.370;2023-03-11T00:38:23;97711.75;;;3.71;62.62
78741;BME280;68062;48.726;9.370;2023-03-11T00:40:50;97716.63;;;3.51;63.20
78741;BME280;68062;48.726;9.370;2023-03-11T00:43:16;97695.34;;;3.39;63.55
78741;BME280;68062;48.726;9.370;2023-03-11T00:45:43;97715.72;;;3.44;63.86
78741;BME280;68062;48.726;9.370;2023-03-11T00:48:12;97720.88;;;3.52;63.90
78741;BME280;68062;48.726;9.370;2023-03-11T00:50:39;97715.78;;;3.50;63.81
78741;BME280;68062;48.726;9.370;2023-03-11T00:53:06;97716.47;;;3.34;64.57
78741;BME280;68062;48.726;9.370;2023-03-11T00:55:36;97713.19;;;3.46;64.64
78741;BME280;68062;48.726;9.370;2023-03-11T00:58:06;97705.59;;;3.49;64.00
78741;BME280;68062;48.726;9.370;2023-03-11T01:00:33;97721.84;;;3.62;64.14
78741;BME280;68062;48.726;9.370;2023-03-11T01:03:00;97717.63;;;3.65;64.03
78741;BME280;68062;48.726;9.370;2023-03-11T01:05:29;97719.88;;;3.37;65.14
78741;BME280;68062;48.726;9.370;2023-03-11T01:07:56;97713.97;;;3.38;65.09
78741;BME280;68062;48.726;9.370;2023-03-11T01:10:22;97719.06;;;3.37;65.44
78741;BME280;68062;48.726;9.370;2023-03-11T01:12:49;97721.63;;;3.40;66.01
78741;BME280;68062;48.726;9.370;2023-03-11T01:15:18;97716.44;;;3.31;65.93
78741;BME280;68062;48.726;9.370;2023-03-11T01:17:46;97709.63;;;3.28;65.99
78741;BME280;68062;48.726;9.370;2023-03-11T01:20:13;97691.63;;;3.06;66.32
78741;BME280;68062;48.726;9.370;2023-03-11T01:22:41;97697.75;;;3.27;66.26
78741;BME280;68062;48.726;9.370;2023-03-11T01:25:20;97706.97;;;3.16;66.98
78741;BME280;68062;48.726;9.370;2023-03-11T01:27:47;97715.50;;;3.24;66.73
78741;BME280;68062;48.726;9.370;2023-03-11T01:30:16;97746.66;;;3.06;67.36
78741;BME280;68062;48.726;9.370;2023-03-11T01:32:43;97713.38;;;2.86;68.11
78741;BME280;68062;48.726;9.370;2023-03-11T01:35:11;97733.88;;;3.00;68.21
78741;BME280;68062;48.726;9.370;2023-03-11T01:37:45;97730.38;;;2.88;68.14
78741;BME280;68062;48.726;9.370;2023-03-11T01:40:15;97727.03;;;2.94;67.35
78741;BME280;68062;48.726;9.370;2023-03-11T01:42:42;97725.44;;;3.02;66.96
78741;BME280;68062;48.726;9.370;2023-03-11T01:45:28;97753.31;;;2.94;66.65
78741;BME280;68062;48.726;9.370;2023-03-11T01:47:57;97740.72;;;3.05;66.81
78741;BME280;68062;48.726;9.370;2023-03-11T01:50:24;97755.09;;;3.03;66.52
78741;BME280;68062;48.726;9.370;2023-03-11T01:52:53;97747.38;;;2.97;65.39
78741;BME280;68062;48.726;9.370;2023-03-11T01:55:21;97739.03;;;3.06;65.73
78741;BME280;68062;48.726;9.370;2023-03-11T01:57:48;97753.34;;;2.98;64.80
78741;BME280;68062;48.726;9.370;2023-03-11T02:00:20;97744.66;;;2.82;64.75
78741;BME280;68062;48.726;9.370;2023-03-11T02:02:49;97721.72;;;2.74;65.67
78741;BME280;68062;48.726;9.370;2023-03-11T02:05:20;97763.38;;;2.88;65.28
78741;BME280;68062;48.726;9.370;2023-03-11T02:07:48;97725.22;;;2.82;65.68
78741;BME280;68062;48.726;9.370;2023-03-11T02:10:17;97725.97;;;2.76;65.25
78741;BME280;68062;48.726;9.370;2023-03-11T02:12:45;97748.91;;;2.83;65.20
78741;BME280;68062;48.726;9.370;2023-03-11T02:15:12;97748.91;;;2.83;65.72
78741;BME280;68062;48.726;9.370;2023-03-11T02:17:40;97757.28;;;2.75;65.90
78741;BME280;68062;48.726;9.370;2023-03-11T02:20:15;97769.00;;;2.67;65.87
78741;BME280;68062;48.726;9.370;2023-03-11T02:22:47;97762.16;;;2.60;66.12
78741;BME280;68062;48.726;9.370;2023-03-11T02:25:22;97781.75;;;2.69;65.42
78741;BME280;68062;48.726;9.370;2023-03-11T02:27:52;97793.38;;;2.54;66.08
78741;BME280;68062;48.726;9.370;2023-03-11T02:33:00;97779.78;;;2.49;66.24
78741;BME280;68062;48.726;9.370;2023-03-11T02:35:26;97767.91;;;2.46;66.82
78741;BME280;68062;48.726;9.370;2023-03-11T02:37:54;97776.56;;;2.61;67.05
78741;BME280;68062;48.726;9.370;2023-03-11T02:40:37;97795.03;;;2.52;66.62
78741;BME280;68062;48.726;9.370;2023-03-11T02:43:09;97779.22;;;2.70;66.21
78741;BME280;68062;48.726;9.370;2023-03-11T02:45:37;97780.72;;;2.56;65.84
78741;BME280;68062;48.726;9.370;2023-03-11T02:48:06;97761.25;;;2.56;66.07
78741;BME280;68062;48.726;9.370;2023-03-11T02:50:34;97790.88;;;2.56;66.09
78741;BME280;68062;48.726;9.370;2023-03-11T02:53:02;97783.19;;;2.51;65.29
78741;BME280;68062;48.726;9.370;2023-03-11T02:55:29;97775.38;;;2.37;65.59
78741;BME280;68062;48.726;9.370;2023-03-11T02:57:56;97791.34;;;2.30;66.10
78741;BME280;68062;48.726;9.370;2023-03-11T03:00:24;97793.06;;;2.32;65.65
78741;BME280;68062;48.726;9.370;2023-03-11T03:02:51;97771.09;;;2.33;65.18
78741;BME280;68062;48.726;9.370;2023-03-11T03:05:18;97765.97;;;2.30;65.01
78741;BME280;68062;48.726;9.370;2023-03-11T03:07:45;97779.53;;;2.32;64.43
78741;BME280;68062;48.726;9.370;2023-03-11T03:10:12;97772.66;;;2.26;64.32
78741;BME280;68062;48.726;9.370;2023-03-11T03:12:39;97778.41;;;2.14;63.71
78741;BME280;68062;48.726;9.370;2023-03-11T03:15:07;97802.84;;;2.09;64.25
78741;BME280;68062;48.726;9.370;2023-03-11T03:17:35;97803.59;;;2.03;64.42
78741;BME280;68062;48.726;9.370;2023-03-11T03:20:02;97796.03;;;2.05;64.67
78741;BME280;68062;48.726;9.370;2023-03-11T03:22:32;97824.59;;;1.96;64.69
78741;BME280;68062;48.726;9.370;2023-03-11T03:24:59;97811.19;;;2.02;64.92
78741;BME280;68062;48.726;9.370;2023-03-11T03:27:26;97817.09;;;2.01;64.48
78741;BME280;68062;48.726;9.370;2023-03-11T03:29:53;97822.13;;;1.99;64.67
78741;BME280;68062;48.726;9.370;2023-03-11T03:32:20;97777.81;;;1.79;64.10
78741;BME280;68062;48.726;9.370;2023-03-11T03:34:48;97814.59;;;2.04;64.54
78741;BME280;68062;48.726;9.370;2023-03-11T03:37:14;97818.09;;;2.11;63.91
78741;BME280;68062;48.726;9.370;2023-03-11T03:39:41;97808.03;;;2.17;64.06
78741;BME280;68062;48.726;9.370;2023-03-11T03:42:07;97811.50;;;2.22;63.67
78741;BME280;68062;48.726;9.370;2023-03-11T03:44:34;97821.63;;;2.20;63.53
78741;BME280;68062;48.726;9.370;2023-03-11T03:47:00;97815.66;;;2.17;63.44
78741;BME280;68062;48.726;9.370;2023-03-11T03:49:27;97821.41;;;2.06;63.38
78741;BME280;68062;48.726;9.370;2023-03-11T03:51:55;97829.00;;;2.05;63.19
78741;BME280;68062;48.726;9.370;2023-03-11T03:54:21;97823.16;;;2.09;63.90
78741;BME280;68062;48.726;9.370;2023-03-11T03:56:48;97831.47;;;2.02;63.75
78741;BME280;68062;48.726;9.370;2023-03-11T03:59:14;97829.72;;;1.99;63.76
78741;BME280;68062;48.726;9.370;2023-03-11T04:01:41;97838.88;;;1.91;64.68
78741;BME280;68062;48.726;9.370;2023-03-11T04:04:07;97850.72;;;1.92;64.12
78741;BME280;68062;48.726;9.370;2023-03-11T04:06:34;97854.25;;;1.99;64.38
78741;BME280;68062;48.726;9.370;2023-03-11T04:09:02;97850.69;;;1.89;64.26
78741;BME280;68062;48.726;9.370;2023-03-11T04:11:28;97854.31;;;2.02;64.19
78741;BME280;68062;48.726;9.370;2023-03-11T04:13:58;97862.91;;;2.12;63.88
78741;BME280;68062;48.726;9.370;2023-03-11T04:16:26;97864.63;;;2.13;64.16
78741;BME280;68062;48.726;9.370;2023-03-11T04:18:52;97860.59;;;2.24;64.17
78741;BME280;68062;48.726;9.370;2023-03-11T04:21:19;97868.81;;;2.09;63.61
78741;BME280;68062;48.726;9.370;2023-03-11T04:23:46;97867.09;;;2.08;63.76
78741;BME280;68062;48.726;9.370;2023-03-11T04:26:13;97863.75;;;2.11;63.86
78741;BME280;68062;48.726;9.370;2023-03-11T04:28:40;97844.94;;;1.99;63.90
78741;BME280;68062;48.726;9.370;2023-03-11T04:31:07;97869.47;;;2.00;63.89
78741;BME280;68062;48.726;9.370;2023-03-11T04:33:34;97865.22;;;1.99;64.52
78741;BME280;68062;48.726;9.370;2023-03-11T04:36:04;97864.41;;;2.00;64.54
78741;BME280;68062;48.726;9.370;2023-03-11T04:38:30;97857.50;;;1.91;64.37
78741;BME280;68062;48.726;9.370;2023-03-11T04:40:59;97864.00;;;1.79;64.79
78741;BME280;68062;48.726;9.370;2023-03-11T04:43:27;97867.53;;;1.87;64.84
78741;BME280;68062;48.726;9.370;2023-03-11T04:45:54;97846.25;;;1.77;64.39
78741;BME280;68062;48.726;9.370;2023-03-11T04:48:20;97871.13;;;1.98;64.51
78741;BME280;68062;48.726;9.370;2023-03-11T04:50:48;97855.97;;;2.01;65.04
78741;BME280;68062;48.726;9.370;2023-03-11T04:53:15;97859.53;;;2.11;64.57
78741;BME280;68062;48.726;9.370;2023-03-11T04:55:42;97853.81;;;2.23;64.41
78741;BME280;68062;48.726;9.370;2023-03-11T04:58:09;97864.72;;;2.17;64.30
78741;BME280;68062;48.726;9.370;2023-03-11T05:00:36;97863.84;;;2.17;64.36
78741;BME280;68062;48.726;9.370;2023-03-11T05:03:03;97857.16;;;2.20;64.29
78741;BME280;68062;48.726;9.370;2023-03-11T05:05:30;97848.56;;;2.14;63.92
78741;BME280;68062;48.726;9.370;2023-03-11T05:07:56;97867.91;;;2.07;64.17
78741;BME280;68062;48.726;9.370;2023-03-11T05:10:23;97859.34;;;2.00;64.86
78741;BME280;68062;48.726;9.370;2023-03-11T05:12:50;97865.22;;;1.98;65.15
78741;BME280;68062;48.726;9.370;2023-03-11T05:15:17;97869.38;;;1.94;65.35
78741;BME280;68062;48.726;9.370;2023-03-11T05:17:45;97875.22;;;1.90;65.45
78741;BME280;68062;48.726;9.370;2023-03-11T05:20:12;97877.09;;;2.00;65.84
78741;BME280;68062;48.726;9.370;2023-03-11T05:22:42;97817.91;;;1.54;66.21
78741;BME280;68062;48.726;9.370;2023-03-11T05:25:57;97872.59;;;2.34;66.12
78741;BME280;68062;48.726;9.370;2023-03-11T05:28:23;97878.34;;;2.23;65.03
78741;BME280;68062;48.726;9.370;2023-03-11T05:30:50;97886.34;;;1.97;65.61
78741;BME280;68062;48.726;9.370;2023-03-11T05:33:16;97878.81;;;1.57;67.06
78741;BME280;68062;48.726;9.370;2023-03-11T05:35:43;97884.63;;;1.51;66.56
78741;BME280;68062;48.726;9.370;2023-03-11T05:38:09;97886.91;;;1.40;67.04
78741;BME280;68062;48.726;9.370;2023-03-11T05:40:36;97885.59;;;1.16;68.11
78741;BME280;68062;48.726;9.370;2023-03-11T05:43:04;97892.94;;;1.04;68.97
78741;BME280;68062;48.726;9.370;2023-03-11T05:45:30;97880.50;;;1.15;68.28
78741;BME280;68062;48.726;9.370;2023-03-11T05:47:56;97877.88;;;1.10;68.85
78741;BME280;68062;48.726;9.370;2023-03-11T05:50:23;97887.59;;;1.31;68.63
78741;BME280;68062;48.726;9.370;2023-03-11T05:52:50;97873.72;;;1.14;68.34
78741;BME280;68062;48.726;9.370;2023-03-11T05:55:17;97882.53;;;1.31;68.67
78741;BME280;68062;48.726;9.370;2023-03-11T05:57:43;97882.69;;;1.39;68.64
78741;BME280;68062;48.726;9.370;2023-03-11T06:00:12;97884.56;;;1.48;68.85
78741;BME280;68062;48.726;9.370;2023-03-11T06:02:39;97889.00;;;1.58;68.96
78741;BME280;68062;48.726;9.370;2023-03-11T06:05:07;97886.56;;;1.65;68.60
78741;BME280;68062;48.726;9.370;2023-03-11T06:07:34;97901.13;;;1.75;68.77
78741;BME280;68062;48.726;9.370;2023-03-11T06:10:01;97897.84;;;1.81;68.85
78741;BME280;68062;48.726;9.370;2023-03-11T06:12:27;97895.59;;;1.95;67.97
78741;BME280;68062;48.726;9.370;2023-03-11T06:14:54;97903.25;;;1.98;67.12
78741;BME280;68062;48.726;9.370;2023-03-11T06:17:22;97906.56;;;1.94;67.81
78741;BME280;68062;48.726;9.370;2023-03-11T06:19:49;97904.97;;;1.99;66.99
78741;BME280;68062;48.726;9.370;2023-03-11T06:22:16;97903.91;;;1.87;65.99
78741;BME280;68062;48.726;9.370;2023-03-11T06:24:42;97908.88;;;1.83;66.55
78741;BME280;68062;48.726;9.370;2023-03-11T06:27:09;97906.22;;;1.75;66.42
78741;BME280;68062;48.726;9.370;2023-03-11T06:29:35;97927.97;;;1.65;67.36
78741;BME280;68062;48.726;9.370;2023-03-11T06:32:02;97914.59;;;1.71;67.40
78741;BME280;68062;48.726;9.370;2023-03-11T06:34:30;97923.22;;;1.81;66.58
78741;BME280;68062;48.726;9.370;2023-03-11T06:36:56;97921.78;;;1.94;65.82
78741;BME280;68062;48.726;9.370;2023-03-11T06:39:23;97923.44;;;1.91;65.53
78741;BME280;68062;48.726;9.370;2023-03-11T06:41:50;97933.53;;;1.90;65.04
78741;BME280;68062;48.726;9.370;2023-03-11T06:44:16;97932.22;;;1.66;66.12
78741;BME280;68062;48.726;9.370;2023-03-11T06:46:43;97938.78;;;1.56;66.59
78741;BME280;68062;48.726;9.370;2023-03-11T06:49:09;97948.06;;;1.56;66.07
78741;BME280;68062;48.726;9.370;2023-03-11T06:51:37;97946.41;;;1.58;67.00
78741;BME280;68062;48.726;9.370;2023-03-11T06:54:03;97962.28;;;1.49;67.06
78741;BME280;68062;48.726;9.370;2023-03-11T06:56:30;97973.31;;;1.51;66.75
78741;BME280;68062;48.726;9.370;2023-03-11T06:58:56;97977.69;;;1.58;66.98
78741;BME280;68062;48.726;9.370;2023-03-11T07:01:24;97969.41;;;1.66;66.47
78741;BME280;68062;48.726;9.370;2023-03-11T07:03:51;97983.84;;;1.70;66.56
78741;BME280;68062;48.726;9.370;2023-03-11T07:06:19;97969.41;;;1.67;67.42
78741;BME280;68062;48.726;9.370;2023-03-11T07:08:48;97978.84;;;1.73;66.84
78741;BME280;68062;48.726;9.370;2023-03-11T07:11:17;97978.72;;;1.67;66.24
78741;BME280;68062;48.726;9.370;2023-03-11T07:13:44;97982.28;;;1.75;66.70
78741;BME280;68062;48.726;9.370;2023-03-11T07:16:12;97985.56;;;1.71;65.84
78741;BME280;68062;48.726;9.370;2023-03-11T07:18:40;97977.19;;;1.75;65.49
78741;BME280;68062;48.726;9.370;2023-03-11T07:21:07;97981.41;;;1.74;65.89
78741;BME280;68062;48.726;9.370;2023-03-11T07:23:34;97977.09;;;1.70;66.04
78741;BME280;68062;48.726;9.370;2023-03-11T07:26:02;97985.94;;;1.89;66.06
78741;BME280;68062;48.726;9.370;2023-03-11T07:28:29;97981.81;;;1.55;65.65
78741;BME280;68062;48.726;9.370;2023-03-11T07:30:56;97946.97;;;1.44;65.91
78741;BME280;68062;48.726;9.370;2023-03-11T07:33:23;97997.03;;;1.55;66.04
78741;BME280;68062;48.726;9.370;2023-03-11T07:35:49;97991.22;;;1.59;66.34
78741;BME280;68062;48.726;9.370;2023-03-11T07:38:16;98000.53;;;1.60;66.08
78741;BME280;68062;48.726;9.370;2023-03-11T07:40:43;97998.19;;;1.69;65.95
78741;BME280;68062;48.726;9.370;2023-03-11T07:43:11;98000.91;;;1.79;65.74
78741;BME280;68062;48.726;9.370;2023-03-11T07:45:38;97995.91;;;1.82;65.35
78741;BME280;68062;48.726;9.370;2023-03-11T07:48:04;98016.06;;;1.75;64.71
78741;BME280;68062;48.726;9.370;2023-03-11T07:50:31;98010.78;;;1.65;65.25
78741;BME280;68062;48.726;9.370;2023-03-11T07:52:57;98019.16;;;1.62;65.78
78741;BME280;68062;48.726;9.370;2023-03-11T07:55:24;98007.63;;;1.37;65.93
78741;BME280;68062;48.726;9.370;2023-03-11T07:57:50;98002.31;;;1.64;65.90
78741;BME280;68062;48.726;9.370;2023-03-11T08:00:19;98007.50;;;1.70;65.43
78741;BME280;68062;48.726;9.370;2023-03-11T08:02:45;98013.78;;;1.86;65.90
78741;BME280;68062;48.726;9.370;2023-03-11T08:05:12;98008.66;;;1.85;64.94
78741;BME280;68062;48.726;9.370;2023-03-11T08:07:38;98015.56;;;1.92;65.00
78741;BME280;68062;48.726;9.370;2023-03-11T08:10:05;98030.97;;;2.00;64.19
78741;BME280;68062;48.726;9.370;2023-03-11T08:12:32;98019.19;;;2.03;64.19
78741;BME280;68062;48.726;9.370;2023-03-11T08:14:58;98039.81;;;1.79;63.99
78741;BME280;68062;48.726;9.370;2023-03-11T08:17:26;98030.53;;;1.80;64.31
78741;BME280;68062;48.726;9.370;2023-03-11T08:19:52;98030.19;;;1.64;64.82
78741;BME280;68062;48.726;9.370;2023-03-11T08:22:19;98042.72;;;1.56;64.69
78741;BME280;68062;48.726;9.370;2023-03-11T08:24:49;98021.06;;;1.72;65.21
78741;BME280;68062;48.726;9.370;2023-03-11T08:27:16;98018.84;;;1.88;64.47
78741;BME280;68062;48.726;9.370;2023-03-11T08:29:42;98042.97;;;2.09;63.92
78741;BME280;68062;48.726;9.370;2023-03-11T08:32:09;98046.63;;;2.22;63.72
78741;BME280;68062;48.726;9.370;2023-03-11T08:34:36;98044.97;;;2.25;63.23
78741;BME280;68062;48.726;9.370;2023-03-11T08:37:03;98050.16;;;2.31;63.73
78741;BME280;68062;48.726;9.370;2023-03-11T08:39:30;98053.78;;;2.43;62.95
78741;BME280;68062;48.726;9.370;2023-03-11T08:41:56;98050.22;;;2.33;63.01
78741;BME280;68062;48.726;9.370;2023-03-11T08:44:24;98047.50;;;2.25;62.14
78741;BME280;68062;48.726;9.370;2023-03-11T08:46:50;98047.03;;;2.45;62.59
78741;BME280;68062;48.726;9.370;2023-03-11T08:49:17;98066.28;;;2.32;62.96
78741;BME280;68062;48.726;9.370;2023-03-11T08:51:44;98057.84;;;2.33;61.59
78741;BME280;68062;48.726;9.370;2023-03-11T08:54:11;98061.69;;;2.57;61.79
78741;BME280;68062;48.726;9.370;2023-03-11T08:56:37;98070.94;;;2.55;60.98
78741;BME280;68062;48.726;9.370;2023-03-11T08:59:04;98057.72;;;2.73;61.68
78741;BME280;68062;48.726;9.370;2023-03-11T09:01:31;98062.03;;;2.77;61.04
78741;BME280;68062;48.726;9.370;2023-03-11T09:03:58;98065.84;;;3.02;60.99
78741;BME280;68062;48.726;9.370;2023-03-11T09:06:24;98058.31;;;3.08;60.34
78741;BME280;68062;48.726;9.370;2023-03-11T09:08:52;98062.97;;;3.33;59.54
78741;BME280;68062;48.726;9.370;2023-03-11T09:11:18;98059.56;;;3.32;59.58
78741;BME280;68062;48.726;9.370;2023-03-11T09:13:47;98068.38;;;3.02;59.61
78741;BME280;68062;48.726;9.370;2023-03-11T09:16:15;98066.09;;;3.16;60.00
78741;BME280;68062;48.726;9.370;2023-03-11T09:18:42;98071.31;;;3.26;59.55
78741;BME280;68062;48.726;9.370;2023-03-11T09:21:08;98070.88;;;3.51;58.90
78741;BME280;68062;48.726;9.370;2023-03-11T09:23:35;98076.91;;;3.58;57.91
78741;BME280;68062;48.726;9.370;2023-03-11T09:26:03;98078.59;;;3.58;57.78
78741;BME280;68062;48.726;9.370;2023-03-11T09:28:30;98073.78;;;3.78;58.36
78741;BME280;68062;48.726;9.370;2023-03-11T09:30:56;98075.94;;;4.11;57.29
78741;BME280;68062;48.726;9.370;2023-03-11T09:33:23;98070.91;;;4.18;56.76
78741;BME280;68062;48.726;9.370;2023-03-11T09:35:50;98094.22;;;3.27;57.05
78741;BME280;68062;48.726;9.370;2023-03-11T09:38:16;98090.56;;;3.11;58.07
78741;BME280;68062;48.726;9.370;2023-03-11T09:40:50;98089.84;;;3.18;58.52
78741;BME280;68062;48.726;9.370;2023-03-11T09:43:26;98087.34;;;3.23;58.87
78741;BME280;68062;48.726;9.370;2023-03-11T09:46:00;98086.47;;;3.21;56.56
78741;BME280;68062;48.726;9.370;2023-03-11T09:48:33;98076.50;;;3.33;56.71
78741;BME280;68062;48.726;9.370;2023-03-11T09:51:07;98077.69;;;3.52;56.64
78741;BME280;68062;48.726;9.370;2023-03-11T09:53:39;98081.31;;;3.70;56.69
78741;BME280;68062;48.726;9.370;2023-03-11T09:56:08;98072.22;;;3.85;57.09
78741;BME280;68062;48.726;9.370;2023-03-11T09:58:40;98075.47;;;3.76;55.82
78741;BME280;68062;48.726;9.370;2023-03-11T10:01:14;98080.97;;;4.07;56.29
78741;BME280;68062;48.726;9.370;2023-03-11T10:03:42;98075.72;;;3.36;55.53
78741;BME280;68062;48.726;9.370;2023-03-11T10:06:15;98091.50;;;3.16;56.62
78741;BME280;68062;48.726;9.370;2023-03-11T10:08:45;98090.41;;;3.02;56.80
78741;BME280;68062;48.726;9.370;2023-03-11T10:11:28;98087.25;;;3.15;56.39
78741;BME280;68062;48.726;9.370;2023-03-11T10:14:08;98082.78;;;3.54;56.84
78741;BME280;68062;48.726;9.370;2023-03-11T10:16:46;98075.63;;;3.88;55.87
78741;BME280;68062;48.726;9.370;2023-03-11T10:19:24;98077.06;;;4.34;55.51
78741;BME280;68062;48.726;9.370;2023-03-11T10:22:00;98072.44;;;4.76;55.15
78741;BME280;68062;48.726;9.370;2023-03-11T10:24:37;98072.69;;;5.00;53.88
78741;BME280;68062;48.726;9.370;2023-03-11T10:27:10;98077.03;;;5.09;54.05
78741;BME280;68062;48.726;9.370;2023-03-11T10:29:47;98073.63;;;5.10;53.80
78741;BME280;68062;48.726;9.370;2023-03-11T10:32:19;98077.84;;;5.07;53.54
78741;BME280;68062;48.726;9.370;2023-03-11T10:34:52;98068.44;;;5.01;53.00
78741;BME280;68062;48.726;9.370;2023-03-11T10:37:23;98080.41;;;5.10;53.53
78741;BME280;68062;48.726;9.370;2023-03-11T10:39:52;98079.28;;;4.80;51.60
78741;BME280;68062;48.726;9.370;2023-03-11T10:42:21;98079.50;;;5.03;51.94
78741;BME280;68062;48.726;9.370;2023-03-11T10:44:49;98074.56;;;5.23;52.29
78741;BME280;68062;48.726;9.370;2023-03-11T10:47:18;98072.84;;;5.19;51.46
78741;BME280;68062;48.726;9.370;2023-03-11T10:49:44;98076.63;;;4.69;51.74
78741;BME280;68062;48.726;9.370;2023-03-11T10:52:11;98076.59;;;4.66;52.58
78741;BME280;68062;48.726;9.370;2023-03-11T10:54:39;98081.50;;;4.50;53.02
78741;BME280;68062;48.726;9.370;2023-03-11T10:57:22;98071.69;;;4.86;51.22
78741;BME280;68062;48.726;9.370;2023-03-11T10:59:52;98070.94;;;4.95;50.52
78741;BME280;68062;48.726;9.370;2023-03-11T11:02:24;98046.50;;;5.17;51.98
78741;BME280;68062;48.726;9.370;2023-03-11T11:05:04;98069.78;;;5.65;50.62
78741;BME280;68062;48.726;9.370;2023-03-11T11:07:32;98073.25;;;5.72;50.17
78741;BME280;68062;48.726;9.370;2023-03-11T11:10:14;98072.50;;;5.92;49.55
78741;BME280;68062;48.726;9.370;2023-03-11T11:12:55;98059.84;;;6.01;48.88
78741;BME280;68062;48.726;9.370;2023-03-11T11:15:27;98062.41;;;6.04;48.18
78741;BME280;68062;48.726;9.370;2023-03-11T11:17:56;98065.88;;;6.20;48.16
78741;BME280;68062;48.726;9.370;2023-03-11T11:20:26;98071.84;;;6.17;48.63
78741;BME280;68062;48.726;9.370;2023-03-11T11:22:55;98072.56;;;5.98;48.09
78741;BME280;68062;48.726;9.370;2023-03-11T11:25:27;98069.56;;;5.34;47.83
78741;BME280;68062;48.726;9.370;2023-03-11T11:27:56;98083.97;;;5.27;48.61
78741;BME280;68062;48.726;9.370;2023-03-11T11:30:25;98085.72;;;5.35;48.64
78741;BME280;68062;48.726;9.370;2023-03-11T11:32:52;98075.91;;;4.82;47.36
78741;BME280;68062;48.726;9.370;2023-03-11T11:35:21;98074.91;;;4.69;47.33
78741;BME280;68062;48.726;9.370;2023-03-11T11:37:49;98061.59;;;4.94;47.58
78741;BME280;68062;48.726;9.370;2023-03-11T11:40:22;98078.38;;;4.75;48.50
78741;BME280;68062;48.726;9.370;2023-03-11T11:42:51;98065.22;;;4.37;49.66
78741;BME280;68062;48.726;9.370;2023-03-11T11:45:28;98084.78;;;4.40;50.42
78741;BME280;68062;48.726;9.370;2023-03-11T11:47:58;98029.53;;;4.33;50.44
78741;BME280;68062;48.726;9.370;2023-03-11T11:50:30;98069.06;;;4.80;50.50
78741;BME280;68062;48.726;9.370;2023-03-11T11:53:04;98064.72;;;4.68;49.17
78741;BME280;68062;48.726;9.370;2023-03-11T11:55:33;98064.78;;;4.76;49.70
78741;BME280;68062;48.726;9.370;2023-03-11T11:58:01;98060.88;;;5.10;49.00
78741;BME280;68062;48.726;9.370;2023-03-11T12:00:34;98042.41;;;5.38;48.39
78741;BME280;68062;48.726;9.370;2023-03-11T12:03:33;98048.50;;;5.63;47.62
78741;BME280;68062;48.726;9.370;2023-03-11T12:06:12;98054.00;;;5.00;47.68
78741;BME280;68062;48.726;9.370;2023-03-11T12:08:46;98049.56;;;4.80;47.56
78741;BME280;68062;48.726;9.370;2023-03-11T12:11:17;98039.31;;;4.76;47.73
78741;BME280;68062;48.726;9.370;2023-03-11T12:13:55;98050.34;;;4.73;48.37
78741;BME280;68062;48.726;9.370;2023-03-11T12:16:33;98039.78;;;4.40;48.64
78741;BME280;68062;48.726;9.370;2023-03-11T12:19:12;98043.47;;;4.67;49.27
78741;BME280;68062;48.726;9.370;2023-03-11T12:21:52;98039.97;;;4.56;48.49
78741;BME280;68062;48.726;9.370;2023-03-11T12:24:40;98041.22;;;4.98;47.80
78741;BME280;68062;48.726;9.370;2023-03-11T12:27:19;98027.19;;;5.53;47.37
78741;BME280;68062;48.726;9.370;2023-03-11T12:29:51;97995.88;;;5.78;50.13
78741;BME280;68062;48.726;9.370;2023-03-11T12:32:28;98024.16;;;6.16;48.59
78741;BME280;68062;48.726;9.370;2023-03-11T12:35:00;98027.59;;;6.26;47.61
78741;BME280;68062;48.726;9.370;2023-03-11T12:37:29;98020.00;;;6.42;47.43
78741;BME280;68062;48.726;9.370;2023-03-11T12:39:56;98025.13;;;6.53;46.69
78741;BME280;68062;48.726;9.370;2023-03-11T12:42:22;98010.66;;;6.55;46.55
78741;BME280;68062;48.726;9.370;2023-03-11T12:44:50;98016.63;;;6.66;45.36
78741;BME280;68062;48.726;9.370;2023-03-11T12:47:23;97993.63;;;6.54;44.94
78741;BME280;68062;48.726;9.370;2023-03-11T12:49:51;98008.97;;;6.61;45.17
78741;BME280;68062;48.726;9.370;2023-03-11T12:52:27;98013.22;;;6.67;44.84
78741;BME280;68062;48.726;9.370;2023-03-11T12:55:28;98010.66;;;6.55;44.79
78741;BME280;68062;48.726;9.370;2023-03-11T12:58:00;98008.63;;;5.81;46.31
78741;BME280;68062;48.726;9.370;2023-03-11T13:00:45;98014.53;;;5.67;45.18
78741;BME280;68062;48.726;9.370;2023-03-11T13:03:34;98013.75;;;5.76;45.90
78741;BME280;68062;48.726;9.370;2023-03-11T13:06:14;98008.84;;;6.16;45.54
78741;BME280;68062;48.726;9.370;2023-03-11T13:08:48;98013.75;;;5.81;45.78
78741;BME280;68062;48.726;9.370;2023-03-11T13:11:35;97997.72;;;6.00;45.86
78741;BME280;68062;48.726;9.370;2023-03-11T13:14:20;98008.03;;;6.30;47.65
78741;BME280;68062;48.726;9.370;2023-03-11T13:16:48;98006.09;;;5.79;46.48
78741;BME280;68062;48.726;9.370;2023-03-11T13:19:45;98000.91;;;5.60;46.44
78741;BME280;68062;48.726;9.370;2023-03-11T13:25:32;98009.81;;;6.68;44.66
78741;BME280;68062;48.726;9.370;2023-03-11T13:31:02;98008.69;;;5.90;45.00